createdAt,value
2022-08-09T00:00:00.512Z,54.61
2022-08-09T00:02:28.617Z,54.81
2022-08-09T00:05:00.901Z,54.91
2022-08-09T00:07:44.643Z,54.59
2022-08-09T00:10:20.980Z,54.94
2022-08-09T00:12:51.709Z,55.27
2022-08-09T00:15:26.324Z,55.17
2022-08-09T00:18:04.554Z,55.46
2022-08-09T00:20:34.713Z,55.38
2022-08-09T00:23:09.888Z,55.31
2022-08-09T00:25:52.622Z,55.24
2022-08-09T00:28:22.421Z,55.30
2022-08-09T00:30:56.826Z,55.52
2022-08-09T00:33:48.850Z,55.48
2022-08-09T00:36:13.774Z,55.18
2022-08-09T00:38:40.604Z,55.15
2022-08-09T00:41:08.669Z,55.61
2022-08-09T00:44:15.598Z,55.43
2022-08-09T00:46:45.301Z,55.56
2022-08-09T00:49:11.237Z,55.59
2022-08-09T00:51:54.491Z,55.72
2022-08-09T00:54:21.786Z,56.13
2022-08-09T00:56:57.957Z,55.95
2022-08-09T00:59:41.378Z,56.39
2022-08-09T01:02:12.814Z,56.45
2022-08-09T01:04:53.312Z,56.30
2022-08-09T01:10:05.220Z,56.72
2022-08-09T01:12:41.099Z,56.37
2022-08-09T01:15:16.842Z,56.53
2022-08-09T01:18:05.050Z,57.25
2022-08-09T01:20:49.979Z,57.14
2022-08-09T01:24:03.107Z,57.17
2022-08-09T01:29:10.006Z,57.32
2022-08-09T01:32:29.949Z,57.47
2022-08-09T01:34:28.688Z,56.96
2022-08-09T01:36:58.773Z,57.38
2022-08-09T01:39:28.103Z,56.91
2022-08-09T01:42:00.510Z,57.28
2022-08-09T01:44:30.683Z,57.34
2022-08-09T01:46:59.946Z,57.31
2022-08-09T01:49:31.920Z,57.23
2022-08-09T01:52:14.626Z,57.59
2022-08-09T01:54:46.250Z,57.58
2022-08-09T01:57:20.655Z,57.59
2022-08-09T01:59:52.627Z,57.54
2022-08-09T02:02:30.090Z,57.92
2022-08-09T02:05:05.310Z,57.88
2022-08-09T02:08:41.355Z,58.53
2022-08-09T02:10:30.144Z,57.74
2022-08-09T02:13:01.155Z,58.47
2022-08-09T02:15:36.168Z,57.92
2022-08-09T02:18:20.584Z,58.15
2022-08-09T02:20:55.322Z,58.62
2022-08-09T02:23:39.757Z,58.52
2022-08-09T02:26:09.265Z,58.77
2022-08-09T02:28:58.202Z,58.17
2022-08-09T02:31:34.214Z,58.48
2022-08-09T02:34:13.731Z,58.73
2022-08-09T02:36:56.990Z,59.00
2022-08-09T02:39:49.897Z,59.27
2022-08-09T02:42:27.900Z,59.50
2022-08-09T02:45:02.638Z,58.70
2022-08-09T02:47:33.932Z,58.50
2022-08-09T02:50:25.313Z,59.44
2022-08-09T02:52:59.751Z,58.54
2022-08-09T02:55:46.710Z,59.07
2022-08-09T02:58:35.629Z,59.59
2022-08-09T03:01:08.213Z,59.28
2022-08-09T03:04:16.677Z,59.28
2022-08-09T03:06:27.443Z,59.35
2022-08-09T03:08:54.593Z,59.31
2022-08-09T03:12:04.859Z,58.54
2022-08-09T03:14:12.009Z,58.60
2022-08-09T03:16:44.954Z,59.24
2022-08-09T03:19:52.183Z,59.12
2022-08-09T03:22:04.602Z,59.12
2022-08-09T03:24:42.670Z,58.99
2022-08-09T03:27:21.446Z,59.35
2022-08-09T03:29:57.586Z,59.32
2022-08-09T03:32:30.032Z,59.87
2022-08-09T03:34:57.990Z,60.08
2022-08-09T03:37:56.706Z,60.18
2022-08-09T03:40:14.469Z,60.36
2022-08-09T03:42:45.502Z,60.31
2022-08-09T03:45:13.785Z,60.14
2022-08-09T03:47:46.512Z,59.80
2022-08-09T03:50:18.729Z,60.75
2022-08-09T03:52:58.016Z,60.62
2022-08-09T03:55:27.219Z,60.39
2022-08-09T03:58:03.488Z,60.57
2022-08-09T04:00:42.834Z,60.92
2022-08-09T04:03:24.560Z,60.12
2022-08-09T04:05:57.702Z,60.68
2022-08-09T04:08:28.780Z,60.56
2022-08-09T04:10:56.266Z,60.49
2022-08-09T04:14:37.435Z,61.19
2022-08-09T04:16:20.133Z,60.71
2022-08-09T04:18:49.211Z,60.79
2022-08-09T04:21:18.162Z,60.91
2022-08-09T04:23:53.572Z,60.63
2022-08-09T04:26:23.455Z,60.63
2022-08-09T04:28:50.258Z,60.85
2022-08-09T04:31:16.875Z,60.84
2022-08-09T04:33:47.211Z,60.84
2022-08-09T04:36:20.946Z,60.95
2022-08-09T04:38:50.144Z,60.87
2022-08-09T04:41:16.785Z,61.02
2022-08-09T04:43:53.760Z,61.61
2022-08-09T04:46:37.573Z,61.35
2022-08-09T04:49:30.193Z,61.82
2022-08-09T04:52:06.104Z,61.46
2022-08-09T04:54:34.418Z,61.62
2022-08-09T04:57:01.047Z,61.66
2022-08-09T04:59:34.265Z,61.57
2022-08-09T05:02:03.008Z,61.75
2022-08-09T05:04:31.194Z,62.15
2022-08-09T05:06:58.495Z,61.61
2022-08-09T05:09:42.153Z,62.08
2022-08-09T05:12:12.437Z,61.53
2022-08-09T05:14:41.026Z,61.93
2022-08-09T05:18:39.875Z,61.94
2022-08-09T05:19:57.130Z,62.13
2022-08-09T05:22:36.231Z,62.53
2022-08-09T05:25:12.310Z,61.64
2022-08-09T05:27:46.646Z,62.26
2022-08-09T05:30:15.987Z,62.70
2022-08-09T05:32:51.001Z,62.59
2022-08-09T05:35:21.964Z,62.99
2022-08-09T05:37:50.339Z,63.39
2022-08-09T05:40:18.352Z,62.97
2022-08-09T05:42:46.061Z,62.69
2022-08-09T05:45:14.119Z,63.24
2022-08-09T05:47:51.735Z,63.05
2022-08-09T05:50:50.560Z,62.78
2022-08-09T05:53:21.715Z,63.18
2022-08-09T05:55:58.211Z,62.60
2022-08-09T05:58:24.799Z,62.60
2022-08-09T06:00:51.383Z,62.38
2022-08-09T06:03:19.837Z,61.26
2022-08-09T06:05:50.159Z,61.27
2022-08-09T06:08:25.094Z,60.96
2022-08-09T06:10:55.673Z,60.77
2022-08-09T06:13:23.036Z,61.26
2022-08-09T06:15:52.329Z,61.20
2022-08-09T06:18:25.458Z,61.65
2022-08-09T06:20:56.849Z,61.25
2022-08-09T06:23:58.401Z,61.25
2022-08-09T06:26:20.066Z,61.46
2022-08-09T06:29:00.004Z,61.40
2022-08-09T06:31:31.041Z,60.55
2022-08-09T06:33:58.595Z,61.37
2022-08-09T06:36:26.995Z,61.16
2022-08-09T06:38:54.237Z,61.48
2022-08-09T06:42:07.646Z,61.48
2022-08-09T06:44:17.971Z,61.81
2022-08-09T06:46:45.839Z,61.02
2022-08-09T06:49:16.047Z,60.25
2022-08-09T06:51:49.427Z,59.89
2022-08-09T06:54:17.964Z,58.76
2022-08-09T06:56:47.603Z,58.56
2022-08-09T07:00:50.758Z,57.40
2022-08-09T07:02:03.677Z,57.03
2022-08-09T07:04:31.444Z,56.15
2022-08-09T07:07:00.605Z,54.69
2022-08-09T07:09:55.892Z,54.55
2022-08-09T07:12:18.171Z,53.29
2022-08-09T07:14:51.198Z,52.57
2022-08-09T07:17:19.990Z,52.01
2022-08-09T07:19:48.116Z,51.31
2022-08-09T07:22:18.664Z,50.92
2022-08-09T07:25:02.111Z,50.09
2022-08-09T07:27:33.931Z,49.79
2022-08-09T07:30:02.339Z,49.03
2022-08-09T07:32:33.375Z,48.39
2022-08-09T07:35:10.179Z,47.73
2022-08-09T07:37:43.542Z,47.08
2022-08-09T07:40:16.615Z,46.95
2022-08-09T07:42:55.744Z,46.14
2022-08-09T07:45:37.828Z,45.70
2022-08-09T07:48:06.017Z,45.38
2022-08-09T07:50:36.390Z,44.68
2022-08-09T07:53:05.133Z,44.20
2022-08-09T07:55:41.735Z,43.79
2022-08-09T07:58:21.675Z,43.22
2022-08-09T08:00:55.534Z,41.79
2022-08-09T08:03:24.321Z,41.18
2022-08-09T08:05:57.641Z,41.23
2022-08-09T08:09:00.803Z,40.95
2022-08-09T08:12:09.828Z,40.76
2022-08-09T08:14:00.300Z,41.28
2022-08-09T08:16:29.577Z,39.21
2022-08-09T08:18:57.897Z,39.29
2022-08-09T08:21:25.348Z,39.06
2022-08-09T08:23:56.143Z,38.35
2022-08-09T08:26:26.334Z,37.84
2022-08-09T08:28:53.529Z,37.41
2022-08-09T08:31:20.351Z,37.46
2022-08-09T08:34:06.158Z,37.11
2022-08-09T08:36:35.487Z,37.10
2022-08-09T08:39:10.417Z,37.31
2022-08-09T08:41:50.572Z,35.99
2022-08-09T08:44:26.871Z,35.61
2022-08-09T08:47:00.102Z,35.69
2022-08-09T08:49:46.917Z,34.82
2022-08-09T08:52:50.355Z,34.91
2022-08-09T08:55:05.623Z,34.92
2022-08-09T08:57:35.478Z,34.20
2022-08-09T09:00:07.939Z,34.47
2022-08-09T09:02:49.985Z,33.61
2022-08-09T09:05:57.825Z,33.98
2022-08-09T09:08:29.185Z,32.82
2022-08-09T09:11:01.122Z,32.83
2022-08-09T09:13:41.828Z,32.79
2022-08-09T09:16:16.182Z,31.25
2022-08-09T09:18:48.072Z,31.92
2022-08-09T09:21:26.249Z,31.79
2022-08-09T09:23:58.080Z,31.58
2022-08-09T09:26:26.117Z,31.00
2022-08-09T09:29:03.538Z,30.27
2022-08-09T09:32:03.997Z,30.45
2022-08-09T09:34:23.541Z,29.82
2022-08-09T09:36:53.202Z,29.87
2022-08-09T09:39:25.673Z,30.05
2022-08-09T09:42:24.429Z,29.64
2022-08-09T09:44:58.002Z,29.73
2022-08-09T09:47:26.472Z,30.12
2022-08-09T09:50:14.553Z,30.13
2022-08-09T09:52:53.772Z,29.60
2022-08-09T09:55:28.871Z,30.43
2022-08-09T09:58:16.331Z,29.44
2022-08-09T10:03:42.867Z,29.89
2022-08-09T10:06:12.468Z,29.45
2022-08-09T10:08:54.368Z,28.74
2022-08-09T10:13:58.528Z,29.93
2022-08-09T10:19:10.093Z,29.47
2022-08-09T10:21:48.696Z,29.89
2022-08-09T10:24:25.636Z,29.30
2022-08-09T10:27:03.097Z,28.64
2022-08-09T10:31:15.598Z,29.43
2022-08-09T10:32:42.243Z,29.13
2022-08-09T10:35:10.563Z,29.45
2022-08-09T10:37:40.279Z,29.29
2022-08-09T10:40:12.173Z,30.21
2022-08-09T10:42:56.017Z,29.79
2022-08-09T10:45:23.569Z,28.99
2022-08-09T10:48:26.313Z,29.51
2022-08-09T10:51:10.007Z,29.27
2022-08-09T10:56:30.638Z,28.44
2022-08-09T10:59:00.386Z,27.47
2022-08-09T11:03:15.769Z,28.49
2022-08-09T11:04:32.844Z,27.99
2022-08-09T11:20:22.140Z,28.25
2022-08-09T11:28:54.421Z,27.89
2022-08-09T11:34:06.503Z,27.71
2022-08-09T11:36:42.096Z,26.60
2022-08-09T11:39:08.802Z,26.86
2022-08-09T11:41:40.324Z,27.80
2022-08-09T11:44:08.432Z,27.98
2022-08-09T11:46:53.100Z,27.80
2022-08-09T11:50:56.582Z,27.90
2022-08-09T12:32:04.139Z,27.82
2022-08-09T12:34:33.635Z,28.16
2022-08-09T12:37:21.488Z,28.71
2022-08-09T12:40:01.068Z,28.18
2022-08-09T12:42:28.233Z,28.01
2022-08-09T12:44:56.838Z,28.61
2022-08-09T12:47:27.347Z,28.06
2022-08-09T12:50:19.744Z,28.72
2022-08-09T12:53:08.443Z,28.38
2022-08-09T12:56:12.495Z,28.27
2022-08-09T12:58:27.327Z,28.26
2022-08-09T13:00:55.151Z,27.66
2022-08-09T13:03:53.300Z,27.24
2022-08-09T13:06:34.306Z,27.45
2022-08-09T13:09:06.996Z,28.17
2022-08-09T13:11:39.660Z,27.91
2022-08-09T13:14:43.946Z,28.41
2022-08-09T13:17:02.037Z,27.43
2022-08-09T13:20:09.599Z,27.43
2022-08-09T13:22:37.985Z,28.19
2022-08-09T13:25:16.423Z,27.96
2022-08-09T13:27:55.206Z,27.17
2022-08-09T13:30:49.098Z,26.97
2022-08-09T13:33:21.609Z,27.40
2022-08-09T13:36:37.871Z,27.89
2022-08-09T13:38:58.023Z,26.85
2022-08-09T13:41:55.005Z,27.07
2022-08-09T13:44:13.439Z,26.61
2022-08-09T13:47:16.422Z,27.44
2022-08-09T13:49:35.238Z,27.94
2022-08-09T13:52:09.165Z,27.23
2022-08-09T13:54:36.492Z,26.52
2022-08-09T13:57:14.254Z,27.02
2022-08-09T13:59:58.234Z,26.47
2022-08-09T14:02:36.363Z,26.80
2022-08-09T14:05:13.511Z,27.43
2022-08-09T14:08:01.335Z,27.09
2022-08-09T14:10:37.546Z,27.00
2022-08-09T14:13:21.810Z,26.76
2022-08-09T14:16:09.010Z,27.47
2022-08-09T14:18:36.234Z,27.04
2022-08-09T14:21:03.405Z,27.57
2022-08-09T14:23:40.343Z,27.73
2022-08-09T14:26:13.560Z,27.47
2022-08-09T14:28:40.185Z,28.21
2022-08-09T14:31:07.466Z,28.10
2022-08-09T14:33:38.083Z,27.73
2022-08-09T14:36:20.252Z,27.53
2022-08-09T14:38:52.647Z,28.08
2022-08-09T14:41:34.902Z,27.92
2022-08-09T14:44:07.479Z,27.96
2022-08-09T14:46:46.096Z,27.62
2022-08-09T14:49:25.702Z,27.80
2022-08-09T14:51:58.192Z,27.58
2022-08-09T14:54:27.904Z,27.56
2022-08-09T14:56:57.923Z,27.83
2022-08-09T14:59:25.495Z,27.87
2022-08-09T15:01:53.968Z,27.64
2022-08-09T15:04:23.571Z,28.03
2022-08-09T15:06:51.363Z,27.77
2022-08-09T15:09:51.980Z,28.39
2022-08-09T15:12:07.766Z,28.10
2022-08-09T15:14:38.679Z,27.90
2022-08-09T15:17:09.292Z,28.00
2022-08-09T15:19:36.765Z,27.88
2022-08-09T15:22:03.906Z,27.78
2022-08-09T15:24:32.266Z,27.91
2022-08-09T15:26:59.541Z,27.68
2022-08-09T15:30:48.739Z,27.62
2022-08-09T15:32:29.335Z,28.14
2022-08-09T15:35:01.319Z,27.78
2022-08-09T15:37:38.143Z,28.34
2022-08-09T15:40:25.365Z,28.52
2022-08-09T15:42:59.450Z,28.35
2022-08-09T15:45:29.463Z,28.10
2022-08-09T15:48:05.441Z,28.36
2022-08-09T15:50:39.209Z,27.77
2022-08-09T15:53:18.734Z,27.77
2022-08-09T15:56:28.357Z,28.00
2022-08-09T15:58:44.457Z,28.07
2022-08-09T16:01:13.706Z,28.24
2022-08-09T16:03:41.520Z,28.77
2022-08-09T16:06:31.406Z,28.14
2022-08-09T16:08:59.125Z,28.76
2022-08-09T16:11:30.929Z,28.34
2022-08-09T16:14:04.690Z,28.20
2022-08-09T16:16:36.953Z,28.00
2022-08-09T16:19:05.727Z,28.13
2022-08-09T16:21:35.010Z,28.56
2022-08-09T16:24:04.875Z,29.00
2022-08-09T16:26:35.216Z,29.19
2022-08-09T16:29:11.588Z,29.00
2022-08-09T16:32:19.218Z,29.16
2022-08-09T16:34:29.088Z,28.80
2022-08-09T16:36:56.478Z,29.28
2022-08-09T16:39:25.933Z,29.05
2022-08-09T16:42:03.610Z,28.86
2022-08-09T16:44:32.326Z,28.99
2022-08-09T16:47:01.919Z,28.95
2022-08-09T16:50:32.111Z,29.11
2022-08-09T16:52:33.526Z,28.90
2022-08-09T16:55:00.411Z,28.98
2022-08-09T16:57:27.102Z,28.73
2022-08-09T17:00:14.898Z,29.85
2022-08-09T17:02:42.808Z,29.27
2022-08-09T17:05:14.132Z,29.61
2022-08-09T17:08:46.924Z,29.49
2022-08-09T17:10:33.683Z,29.00
2022-08-09T17:13:01.042Z,29.78
2022-08-09T17:15:31.445Z,29.82
2022-08-09T17:18:15.202Z,29.20
2022-08-09T17:20:46.654Z,29.25
2022-08-09T17:23:19.124Z,29.50
2022-08-09T17:25:53.139Z,30.27
2022-08-09T17:28:20.126Z,30.17
2022-08-09T17:30:48.067Z,30.56
2022-08-09T17:33:22.565Z,30.34
2022-08-09T17:35:50.023Z,30.48
2022-08-09T17:38:32.654Z,30.24
2022-08-09T17:41:03.410Z,29.57
2022-08-09T17:43:34.122Z,29.57
2022-08-09T17:46:06.957Z,30.45
2022-08-09T17:48:38.485Z,30.64
2022-08-09T17:51:10.305Z,30.12
2022-08-09T17:53:52.096Z,30.40
2022-08-09T17:56:27.068Z,30.60
2022-08-09T17:59:01.102Z,30.64
2022-08-09T18:02:06.823Z,30.94
2022-08-09T18:04:18.921Z,30.43
2022-08-09T18:06:54.322Z,30.86
2022-08-09T18:09:22.900Z,31.53
2022-08-09T18:12:10.056Z,31.08
2022-08-09T18:14:38.161Z,31.42
2022-08-09T18:17:18.994Z,31.36
2022-08-09T18:26:56.013Z,32.13
2022-08-09T18:30:38.123Z,32.52
2022-08-09T18:32:10.349Z,32.16
2022-08-09T18:34:38.977Z,31.95
2022-08-09T18:37:10.407Z,32.77
2022-08-09T18:39:55.645Z,32.46
2022-08-09T18:42:29.144Z,32.43
2022-08-09T18:44:56.270Z,33.51
2022-08-09T18:47:27.591Z,32.71
2022-08-09T18:50:02.903Z,33.35
2022-08-09T18:52:34.918Z,33.02
2022-08-09T18:55:02.508Z,33.48
2022-08-09T18:57:38.506Z,33.08
2022-08-09T19:00:11.540Z,33.26
2022-08-09T19:02:43.796Z,32.58
2022-08-09T19:05:20.673Z,33.63
2022-08-09T19:08:04.039Z,33.14
2022-08-09T19:10:39.181Z,33.75
2022-08-09T19:13:16.231Z,34.13
2022-08-09T19:15:49.937Z,34.70
2022-08-09T19:18:32.555Z,34.75
2022-08-09T19:21:02.420Z,34.96
2022-08-09T19:24:33.096Z,34.70
2022-08-09T19:26:16.729Z,35.25
2022-08-09T19:28:48.799Z,35.01
2022-08-09T19:31:16.664Z,35.09
2022-08-09T19:33:43.801Z,35.53
2022-08-09T19:36:11.884Z,35.41
2022-08-09T19:38:40.151Z,35.65
2022-08-09T19:41:06.880Z,35.61
2022-08-09T19:43:57.925Z,35.54
2022-08-09T19:46:34.145Z,35.60
2022-08-09T19:50:04.587Z,35.81
2022-08-09T19:51:55.691Z,36.08
2022-08-09T19:54:24.978Z,36.14
2022-08-09T19:56:52.187Z,36.18
2022-08-09T19:59:57.677Z,36.43
2022-08-09T20:03:23.982Z,36.31
2022-08-09T20:04:55.140Z,36.12
2022-08-09T20:07:22.579Z,36.25
2022-08-09T20:09:49.910Z,36.31
2022-08-09T20:12:29.784Z,35.99
2022-08-09T20:16:37.683Z,36.06
2022-08-09T20:17:54.721Z,36.32
2022-08-09T20:20:22.117Z,36.73
2022-08-09T20:22:51.270Z,36.91
2022-08-09T20:25:23.091Z,37.28
2022-08-09T20:27:49.889Z,37.26
2022-08-09T20:30:17.932Z,36.91
2022-08-09T20:32:52.321Z,37.50
2022-08-09T20:35:20.101Z,37.09
2022-08-09T20:38:22.383Z,37.46
2022-08-09T20:40:33.415Z,37.31
2022-08-09T20:43:18.236Z,37.84
2022-08-09T20:45:59.228Z,37.85
2022-08-09T20:48:30.826Z,37.41
2022-08-09T20:50:58.665Z,37.67
2022-08-09T20:53:36.372Z,38.05
2022-08-09T20:56:20.677Z,37.34
2022-08-09T20:58:57.898Z,37.58
2022-08-09T21:01:35.011Z,38.61
2022-08-09T21:05:51.766Z,39.27
2022-08-09T21:06:58.353Z,39.27
2022-08-09T21:09:41.590Z,39.35
2022-08-09T21:14:41.935Z,40.46
2022-08-09T21:18:23.905Z,41.04
2022-08-09T21:20:18.243Z,40.88
2022-08-09T21:22:47.006Z,41.24
2022-08-09T21:25:38.481Z,41.97
2022-08-09T21:28:07.401Z,41.97
2022-08-09T21:30:40.575Z,41.92
2022-08-09T21:33:08.103Z,42.36
2022-08-09T21:35:40.596Z,42.43
2022-08-09T21:38:10.696Z,42.34
2022-08-09T21:40:39.077Z,42.38
2022-08-09T21:43:07.980Z,42.98
2022-08-09T21:45:39.206Z,42.61
2022-08-09T21:48:07.473Z,42.61
2022-08-09T21:50:38.407Z,42.35
2022-08-09T21:53:06.814Z,42.08
2022-08-09T21:55:46.843Z,42.93
2022-08-09T21:58:14.173Z,43.07
2022-08-09T22:00:40.855Z,43.10
2022-08-09T22:03:19.283Z,43.04
2022-08-09T22:05:51.321Z,43.42
2022-08-09T22:08:18.527Z,43.57
2022-08-09T22:11:00.160Z,43.54
2022-08-09T22:13:35.611Z,44.36
2022-08-09T22:16:07.550Z,45.12
2022-08-09T22:18:35.291Z,45.06
2022-08-09T22:21:09.785Z,45.30
2022-08-09T22:23:58.870Z,45.66
2022-08-09T22:26:34.762Z,46.17
2022-08-09T22:29:07.566Z,45.98
2022-08-09T22:31:36.868Z,45.75
2022-08-09T22:34:09.827Z,46.07
2022-08-09T22:36:46.129Z,46.44
2022-08-09T22:39:47.101Z,46.04
2022-08-09T22:42:02.239Z,46.63
2022-08-09T22:44:29.956Z,46.63
2022-08-09T22:48:13.808Z,46.79
2022-08-09T22:49:46.267Z,46.91
2022-08-09T22:52:12.919Z,46.80
2022-08-09T22:54:42.259Z,47.52
2022-08-09T22:57:13.463Z,47.02
2022-08-09T22:59:57.671Z,47.20
2022-08-09T23:02:25.444Z,47.42
2022-08-09T23:04:54.710Z,47.49
2022-08-09T23:08:23.046Z,47.61
2022-08-09T23:10:30.514Z,47.65
2022-08-09T23:12:57.975Z,47.17
2022-08-09T23:15:24.764Z,47.41
2022-08-09T23:17:51.359Z,47.34
2022-08-09T23:20:17.947Z,47.74
2022-08-09T23:22:44.558Z,47.56
2022-08-09T23:25:11.194Z,47.27
2022-08-09T23:28:00.586Z,47.43
2022-08-09T23:30:24.503Z,47.54
2022-08-09T23:32:51.139Z,47.56
2022-08-09T23:35:18.024Z,47.85
2022-08-09T23:37:44.615Z,48.16
2022-08-09T23:40:11.629Z,48.30
2022-08-09T23:42:38.281Z,48.42
2022-08-09T23:45:08.796Z,48.32
2022-08-09T23:47:35.611Z,48.58
2022-08-09T23:50:02.231Z,48.29
2022-08-09T23:52:28.888Z,48.54
2022-08-09T23:54:57.557Z,48.58
2022-08-09T23:58:10.723Z,48.63
